createdAt,value
2023-04-07T00:00:46.758Z,100266.15
2023-04-07T00:05:48.371Z,100260.17
2023-04-07T00:10:49.934Z,100258.30
2023-04-07T00:15:51.668Z,100251.65
2023-04-07T00:20:53.162Z,100250.63
2023-04-07T00:25:54.636Z,100249.77
2023-04-07T00:30:56.135Z,100245.17
2023-04-07T00:35:58.747Z,100238.87
2023-04-07T00:41:00.840Z,100236.83
2023-04-07T00:46:03.068Z,100238.00
2023-04-07T00:51:06.853Z,100238.01
2023-04-07T00:56:08.359Z,100235.94
2023-04-07T01:01:20.251Z,100235.26
2023-04-07T01:06:26.879Z,100231.00
2023-04-07T01:11:31.292Z,100232.54
2023-04-07T01:16:39.653Z,100227.23
2023-04-07T01:21:45.193Z,100228.40
2023-04-07T01:26:47.700Z,100224.66
2023-04-07T01:31:50.621Z,100227.20
2023-04-07T01:36:54.498Z,100222.23
2023-04-07T01:41:58.117Z,100216.09
2023-04-07T01:47:00.731Z,100217.46
2023-04-07T01:52:03.017Z,100214.36
2023-04-07T01:57:04.550Z,100214.52
2023-04-07T02:02:06.293Z,100215.40
2023-04-07T02:07:22.516Z,100215.71
2023-04-07T02:12:27.521Z,100214.34
2023-04-07T02:17:30.856Z,100212.30
2023-04-07T02:22:33.295Z,100213.52
2023-04-07T02:27:34.780Z,100217.23
2023-04-07T02:32:36.274Z,100214.98
2023-04-07T02:37:38.628Z,100210.37
2023-04-07T02:42:40.740Z,100205.92
2023-04-07T02:47:42.240Z,100204.17
2023-04-07T02:52:43.730Z,100203.98
2023-04-07T02:57:45.312Z,100206.55
2023-04-07T03:02:46.977Z,100204.98
2023-04-07T03:07:48.689Z,100205.66
2023-04-07T03:12:50.256Z,100203.47
2023-04-07T03:17:52.008Z,100206.36
2023-04-07T03:22:53.610Z,100207.69
2023-04-07T03:27:55.543Z,100210.27
2023-04-07T03:32:57.072Z,100210.60
2023-04-07T03:37:58.612Z,100213.67
2023-04-07T03:43:00.345Z,100209.73
2023-04-07T03:48:02.352Z,100205.98
2023-04-07T03:53:03.981Z,100204.95
2023-04-07T03:58:06.174Z,100207.14
2023-04-07T04:03:08.043Z,100212.45
2023-04-07T04:08:09.649Z,100209.05
2023-04-07T04:13:11.219Z,100210.88
2023-04-07T04:18:12.762Z,100210.88
2023-04-07T04:23:15.042Z,100211.19
2023-04-07T04:28:16.728Z,100213.70
2023-04-07T04:33:18.206Z,100220.04
2023-04-07T04:38:19.738Z,100224.65
2023-04-07T04:43:21.235Z,100228.52
2023-04-07T04:48:22.745Z,100226.43
2023-04-07T04:53:24.249Z,100226.73
2023-04-07T04:58:26.333Z,100228.94
2023-04-07T05:03:29.260Z,100226.34
2023-04-07T05:08:31.308Z,100225.11
2023-04-07T05:13:32.853Z,100221.79
2023-04-07T05:18:34.435Z,100225.23
2023-04-07T05:23:36.419Z,100227.98
2023-04-07T05:28:40.061Z,100226.73
2023-04-07T05:33:41.515Z,100228.07
2023-04-07T05:38:43.023Z,100229.06
2023-04-07T05:43:44.525Z,100225.77
2023-04-07T05:48:46.428Z,100227.29
2023-04-07T05:53:47.901Z,100227.55
2023-04-07T05:58:49.376Z,100223.56
2023-04-07T06:03:51.073Z,100224.58
2023-04-07T06:08:52.817Z,100224.89
2023-04-07T06:13:54.328Z,100227.19
2023-04-07T06:18:55.920Z,100220.46
2023-04-07T06:23:57.387Z,100230.47
2023-04-07T06:28:59.473Z,100229.64
2023-04-07T06:34:01.154Z,100229.10
2023-04-07T06:39:02.922Z,100231.83
2023-04-07T06:44:06.495Z,100225.56
2023-04-07T06:49:09.065Z,100230.54
2023-04-07T06:54:14.054Z,100231.59
2023-04-07T06:59:15.872Z,100229.95
2023-04-07T07:04:17.563Z,100229.50
2023-04-07T07:09:19.306Z,100227.95
2023-04-07T07:14:20.802Z,100224.48
2023-04-07T07:19:22.328Z,100229.17
2023-04-07T07:24:23.810Z,100227.31
2023-04-07T07:29:25.410Z,100227.65
2023-04-07T07:34:26.973Z,100234.39
2023-04-07T07:39:29.970Z,100233.05
2023-04-07T07:44:32.582Z,100233.27
2023-04-07T07:49:34.228Z,100236.00
2023-04-07T07:54:35.879Z,100237.19
2023-04-07T07:59:37.371Z,100243.59
2023-04-07T08:04:39.105Z,100245.88
2023-04-07T08:09:40.688Z,100243.21
2023-04-07T08:14:42.174Z,100245.09
2023-04-07T08:19:43.683Z,100243.88
2023-04-07T08:24:45.438Z,100245.86
2023-04-07T08:29:58.216Z,100243.92
2023-04-07T08:34:59.896Z,100242.98
2023-04-07T08:40:02.984Z,100232.31
2023-04-07T08:45:06.721Z,100239.88
2023-04-07T08:50:10.539Z,100241.23
2023-04-07T08:55:12.255Z,100242.87
2023-04-07T09:00:14.738Z,100243.20
2023-04-07T09:05:16.350Z,100242.94
2023-04-07T09:10:18.152Z,100247.09
2023-04-07T09:15:20.858Z,100242.80
2023-04-07T09:20:22.423Z,100243.45
2023-04-07T09:25:27.237Z,100240.91
2023-04-07T09:30:31.378Z,100234.88
2023-04-07T09:35:51.002Z,100239.36
2023-04-07T09:41:06.282Z,100238.84
2023-04-07T09:46:12.604Z,100238.91
2023-04-07T09:51:18.418Z,100243.52
2023-04-07T09:56:24.220Z,100246.29
2023-04-07T10:01:25.878Z,100244.14
2023-04-07T10:06:27.667Z,100247.10
2023-04-07T10:11:29.485Z,100246.67
2023-04-07T10:16:31.765Z,100247.42
2023-04-07T10:21:37.865Z,100246.40
2023-04-07T10:26:41.826Z,100247.86
2023-04-07T10:31:44.706Z,100250.67
2023-04-07T10:37:09.710Z,100253.92
2023-04-07T10:42:49.350Z,100253.38
2023-04-07T10:48:03.104Z,100257.93
2023-04-07T10:53:07.280Z,100263.77
2023-04-07T10:58:29.014Z,100264.58
2023-04-07T11:03:57.070Z,100263.55
2023-04-07T11:08:58.867Z,100269.34
2023-04-07T11:14:00.573Z,100271.00
2023-04-07T11:19:02.071Z,100276.31
2023-04-07T11:24:05.770Z,100279.42
2023-04-07T11:29:08.106Z,100280.71
2023-04-07T11:34:09.745Z,100274.98
2023-04-07T11:39:22.135Z,100274.49
2023-04-07T11:44:26.227Z,100272.64
2023-04-07T11:49:28.668Z,100281.44
2023-04-07T11:54:41.453Z,100282.16
2023-04-07T11:59:42.982Z,100297.30
2023-04-07T12:04:57.457Z,100311.77
2023-04-07T12:10:17.896Z,100315.83
2023-04-07T12:15:20.599Z,100320.73
2023-04-07T12:20:22.139Z,100332.35
2023-04-07T12:25:23.788Z,100344.16
2023-04-07T12:30:28.777Z,100344.25
2023-04-07T12:35:30.984Z,100341.63
2023-04-07T12:40:32.535Z,100350.92
2023-04-07T12:45:34.222Z,100359.20
2023-04-07T12:50:37.489Z,100361.55
2023-04-07T12:55:38.894Z,100359.04
2023-04-07T13:00:42.147Z,100354.82
2023-04-07T13:05:43.643Z,100355.85
2023-04-07T13:10:45.125Z,100360.49
2023-04-07T13:15:46.979Z,100359.54
2023-04-07T13:20:58.565Z,100362.73
2023-04-07T13:26:10.025Z,100370.03
2023-04-07T13:31:15.790Z,100371.58
2023-04-07T13:36:17.636Z,100375.17
2023-04-07T13:41:19.132Z,100378.86
2023-04-07T13:46:28.379Z,100405.91
2023-04-07T13:51:30.704Z,100414.83
2023-04-07T13:56:32.375Z,100425.32
2023-04-07T14:01:35.774Z,100427.38
2023-04-07T14:06:38.016Z,100432.79
2023-04-07T14:11:39.614Z,100428.41
2023-04-07T14:16:41.572Z,100435.23
2023-04-07T14:21:43.049Z,100437.26
2023-04-07T14:26:45.505Z,100438.59
2023-04-07T14:31:51.928Z,100442.38
2023-04-07T14:36:55.402Z,100449.06
2023-04-07T14:41:56.898Z,100448.52
2023-04-07T14:46:58.407Z,100447.42
2023-04-07T14:51:59.908Z,100444.30
2023-04-07T14:57:01.475Z,100450.85
2023-04-07T15:02:03.108Z,100454.98
2023-04-07T15:07:05.335Z,100454.92
2023-04-07T15:12:06.919Z,100457.77
2023-04-07T15:17:08.467Z,100461.13
2023-04-07T15:22:10.609Z,100467.42
2023-04-07T15:27:12.084Z,100472.81
2023-04-07T15:32:13.718Z,100478.91
2023-04-07T15:37:17.314Z,100484.11
2023-04-07T15:42:18.912Z,100484.40
2023-04-07T15:47:20.405Z,100486.48
2023-04-07T15:52:21.928Z,100487.38
2023-04-07T15:57:23.415Z,100487.86
2023-04-07T16:02:25.122Z,100491.30
2023-04-07T16:07:27.565Z,100488.85
2023-04-07T16:12:29.129Z,100494.40
2023-04-07T16:17:30.693Z,100505.59
2023-04-07T16:22:32.289Z,100505.76
2023-04-07T16:27:33.794Z,100517.23
2023-04-07T16:32:35.428Z,100526.55
2023-04-07T16:37:37.300Z,100534.64
2023-04-07T16:42:39.060Z,100541.97
2023-04-07T16:47:44.272Z,100559.44
2023-04-07T16:52:47.734Z,100567.21
2023-04-07T16:57:50.166Z,100575.81
2023-04-07T17:02:51.735Z,100583.52
2023-04-07T17:07:53.939Z,100595.21
2023-04-07T17:12:56.836Z,100604.22
2023-04-07T17:17:58.773Z,100610.67
2023-04-07T17:23:00.581Z,100620.02
2023-04-07T17:28:02.222Z,100625.49
2023-04-07T17:33:04.632Z,100631.76
2023-04-07T17:38:06.732Z,100636.69
2023-04-07T17:43:08.412Z,100647.23
2023-04-07T17:48:12.177Z,100655.36
2023-04-07T17:53:14.075Z,100662.39
2023-04-07T17:58:15.805Z,100665.27
2023-04-07T18:03:17.888Z,100674.03
2023-04-07T18:08:19.688Z,100682.82
2023-04-07T18:13:21.213Z,100694.52
2023-04-07T18:18:22.890Z,100703.15
2023-04-07T18:23:24.501Z,100707.96
2023-04-07T18:28:26.327Z,100717.52
2023-04-07T18:33:32.889Z,100725.56
2023-04-07T18:38:36.033Z,100730.56
2023-04-07T18:43:37.928Z,100736.23
2023-04-07T18:48:41.039Z,100743.95
2023-04-07T18:53:42.889Z,100750.09
2023-04-07T18:58:46.013Z,100760.02
2023-04-07T19:03:48.366Z,100759.71
2023-04-07T19:08:51.427Z,100767.23
2023-04-07T19:13:53.431Z,100776.83
2023-04-07T19:18:55.342Z,100780.10
2023-04-07T19:23:59.420Z,100785.60
2023-04-07T19:29:03.265Z,100789.75
2023-04-07T19:34:04.797Z,100791.52
2023-04-07T19:39:06.434Z,100800.27
2023-04-07T19:44:08.160Z,100800.79
2023-04-07T19:49:10.540Z,100808.30
2023-04-07T19:54:12.170Z,100819.58
2023-04-07T19:59:13.644Z,100824.73
2023-04-07T20:04:15.493Z,100834.69
2023-04-07T20:09:17.474Z,100840.56
2023-04-07T20:14:19.040Z,100848.44
2023-04-07T20:19:21.020Z,100859.91
2023-04-07T20:24:22.796Z,100868.11
2023-04-07T20:29:24.283Z,100871.85
2023-04-07T20:34:25.848Z,100877.63
2023-04-07T20:39:27.349Z,100878.27
2023-04-07T20:44:29.374Z,100880.20
2023-04-07T20:49:30.868Z,100882.08
2023-04-07T20:54:33.184Z,100882.38
2023-04-07T20:59:34.666Z,100885.59
2023-04-07T21:04:37.053Z,100884.56
2023-04-07T21:09:38.830Z,100886.84
2023-04-07T21:14:40.498Z,100893.17
2023-04-07T21:19:42.315Z,100893.33
2023-04-07T21:24:43.828Z,100899.77
2023-04-07T21:29:45.508Z,100908.14
2023-04-07T21:34:47.011Z,100911.94
2023-04-07T21:39:48.758Z,100917.88
2023-04-07T21:44:50.255Z,100920.08
2023-04-07T21:49:51.790Z,100925.36
2023-04-07T21:54:53.261Z,100933.53
2023-04-07T21:59:54.756Z,100933.58
2023-04-07T22:04:56.245Z,100934.95
2023-04-07T22:09:58.343Z,100937.16
2023-04-07T22:14:59.970Z,100932.86
2023-04-07T22:20:01.529Z,100941.75
2023-04-07T22:25:03.476Z,100946.35
2023-04-07T22:30:09.967Z,100944.48
2023-04-07T22:35:11.656Z,100946.38
2023-04-07T22:40:13.178Z,100949.42
2023-04-07T22:45:14.907Z,100951.64
2023-04-07T22:50:16.856Z,100954.01
2023-04-07T22:55:19.501Z,100954.69
2023-04-07T23:00:29.336Z,100959.09
2023-04-07T23:05:31.034Z,100956.23
2023-04-07T23:10:32.536Z,100955.73
2023-04-07T23:15:35.937Z,100959.27
2023-04-07T23:20:37.465Z,100961.98
2023-04-07T23:25:38.927Z,100963.34
2023-04-07T23:30:40.545Z,100969.46
2023-04-07T23:35:42.070Z,100967.63
2023-04-07T23:40:43.619Z,100959.48
2023-04-07T23:45:45.102Z,100959.66
2023-04-07T23:50:49.058Z,100956.91
2023-04-07T23:55:50.966Z,100956.56
